createdAt,value
2019-05-26T00:01:03.224Z,7.60
2019-05-26T00:04:07.496Z,6.45
2019-05-26T00:07:11.832Z,10.10
2019-05-26T00:10:16.584Z,5.97
2019-05-26T00:13:20.850Z,7.95
2019-05-26T00:16:25.190Z,6.83
2019-05-26T00:19:29.455Z,9.38
2019-05-26T00:22:33.697Z,9.05
2019-05-26T00:25:38.021Z,9.03
2019-05-26T00:28:42.324Z,8.83
2019-05-26T00:31:46.535Z,8.18
2019-05-26T00:34:50.853Z,6.65
2019-05-26T00:37:55.137Z,7.00
2019-05-26T00:40:59.476Z,6.53
2019-05-26T00:44:03.857Z,6.67
2019-05-26T00:47:08.163Z,6.92
2019-05-26T00:50:12.940Z,9.18
2019-05-26T00:53:17.237Z,9.05
2019-05-26T00:56:21.520Z,6.58
2019-05-26T00:59:25.984Z,6.97
2019-05-26T01:02:30.274Z,6.47
2019-05-26T01:05:34.661Z,6.67
2019-05-26T01:08:38.942Z,7.22
2019-05-26T01:11:43.243Z,6.83
2019-05-26T01:14:47.441Z,7.30
2019-05-26T01:17:51.660Z,6.97
2019-05-26T01:20:55.906Z,7.50
2019-05-26T01:24:00.223Z,8.55
2019-05-26T01:27:04.421Z,7.12
2019-05-26T01:30:09.351Z,6.90
2019-05-26T01:33:13.552Z,9.55
2019-05-26T01:36:17.988Z,6.85
2019-05-26T01:39:22.252Z,7.08
2019-05-26T01:42:26.571Z,7.53
2019-05-26T01:45:30.817Z,7.03
2019-05-26T01:48:35.055Z,6.50
2019-05-26T01:51:39.267Z,6.87
2019-05-26T01:54:43.697Z,7.85
2019-05-26T01:57:48.137Z,6.95
2019-05-26T02:00:52.461Z,7.72
2019-05-26T02:03:56.737Z,7.55
2019-05-26T02:07:01.053Z,7.37
2019-05-26T02:10:05.919Z,8.18
2019-05-26T02:13:10.348Z,6.95
2019-05-26T02:16:17.691Z,7.35
2019-05-26T02:19:22.037Z,8.00
2019-05-26T02:22:26.312Z,6.92
2019-05-26T02:25:30.716Z,7.42
2019-05-26T02:28:34.998Z,7.25
2019-05-26T02:31:39.394Z,7.58
2019-05-26T02:34:43.667Z,7.28
2019-05-26T02:37:48.036Z,7.87
2019-05-26T02:40:52.316Z,7.67
2019-05-26T02:43:56.643Z,7.17
2019-05-26T02:47:02.124Z,8.03
2019-05-26T02:50:07.459Z,8.28
2019-05-26T02:53:11.723Z,7.55
2019-05-26T02:56:16.441Z,8.23
2019-05-26T02:59:20.724Z,11.25
2019-05-26T03:02:25.023Z,7.83
2019-05-26T03:05:29.915Z,8.13
2019-05-26T03:08:35.981Z,8.40
2019-05-26T03:11:43.015Z,8.80
2019-05-26T03:14:49.899Z,8.48
2019-05-26T03:17:55.690Z,9.28
2019-05-26T03:21:03.303Z,8.70
2019-05-26T03:24:07.560Z,8.63
2019-05-26T03:27:11.974Z,8.68
2019-05-26T03:30:16.486Z,10.32
2019-05-26T03:33:20.945Z,8.63
2019-05-26T03:36:25.137Z,8.93
2019-05-26T03:39:43.680Z,14.55
2019-05-26T03:42:35.490Z,8.90
2019-05-26T03:46:17.943Z,9.78
2019-05-26T03:49:22.392Z,9.18
2019-05-26T03:52:26.822Z,9.10
2019-05-26T03:55:31.010Z,9.25
2019-05-26T03:58:35.475Z,9.88
2019-05-26T04:01:39.829Z,9.68
2019-05-26T04:04:44.132Z,9.93
2019-05-26T04:07:48.409Z,9.88
2019-05-26T04:10:52.883Z,9.55
2019-05-26T04:13:57.185Z,9.63
2019-05-26T04:17:01.490Z,10.18
2019-05-26T04:20:07.139Z,9.60
2019-05-26T04:23:11.459Z,9.63
2019-05-26T04:26:16.166Z,9.98
2019-05-26T04:29:20.522Z,10.38
2019-05-26T04:32:24.803Z,9.38
2019-05-26T04:35:29.199Z,9.58
2019-05-26T04:38:33.496Z,10.15
2019-05-26T04:41:37.897Z,9.18
2019-05-26T04:44:42.085Z,9.80
2019-05-26T04:47:46.581Z,9.80
2019-05-26T04:50:50.899Z,11.55
2019-05-26T04:53:55.397Z,9.13
2019-05-26T04:56:59.600Z,9.38
2019-05-26T05:00:04.359Z,9.63
2019-05-26T05:03:08.638Z,10.53
2019-05-26T05:06:13.006Z,8.50
2019-05-26T05:09:17.272Z,8.68
2019-05-26T05:12:21.653Z,9.30
2019-05-26T05:15:25.930Z,9.83
2019-05-26T05:18:30.228Z,8.43
2019-05-26T05:21:34.509Z,8.13
2019-05-26T05:24:38.826Z,8.85
2019-05-26T05:27:43.025Z,8.83
2019-05-26T05:30:47.399Z,8.45
2019-05-26T05:33:51.678Z,8.18
2019-05-26T05:36:55.995Z,8.53
2019-05-26T05:40:00.186Z,8.45
2019-05-26T05:43:04.485Z,7.67
2019-05-26T05:46:09.008Z,9.00
2019-05-26T05:49:13.280Z,13.20
2019-05-26T05:52:17.560Z,12.45
2019-05-26T05:55:22.206Z,9.15
2019-05-26T05:58:26.462Z,8.20
2019-05-26T06:01:30.767Z,7.95
2019-05-26T06:04:35.115Z,9.53
2019-05-26T06:07:39.342Z,7.12
2019-05-26T06:10:43.601Z,9.58
2019-05-26T06:13:49.286Z,7.17
2019-05-26T06:16:53.562Z,7.17
2019-05-26T06:19:57.970Z,8.95
2019-05-26T06:23:02.219Z,7.78
2019-05-26T06:26:06.492Z,6.90
2019-05-26T06:29:10.746Z,7.83
2019-05-26T06:32:15.333Z,6.72
2019-05-26T06:35:20.213Z,7.40
2019-05-26T06:38:24.520Z,6.58
2019-05-26T06:41:33.491Z,7.37
2019-05-26T06:44:52.079Z,7.72
2019-05-26T06:47:40.633Z,9.83
2019-05-26T06:50:45.069Z,11.38
2019-05-26T06:53:49.334Z,8.25
2019-05-26T06:56:53.733Z,9.68
2019-05-26T06:59:57.946Z,14.85
2019-05-26T07:03:02.267Z,11.03
2019-05-26T07:06:06.634Z,17.60
2019-05-26T07:09:10.854Z,22.67
2019-05-26T07:12:15.059Z,23.50
2019-05-26T07:15:19.598Z,20.55
2019-05-26T07:18:23.873Z,16.32
2019-05-26T07:21:28.184Z,15.08
2019-05-26T07:24:32.364Z,18.42
2019-05-26T07:27:36.682Z,19.62
2019-05-26T07:30:41.095Z,20.68
2019-05-26T07:33:45.602Z,16.20
2019-05-26T07:36:49.786Z,13.35
2019-05-26T07:39:54.077Z,14.38
2019-05-26T07:42:58.293Z,18.17
2019-05-26T07:46:02.675Z,13.05
2019-05-26T07:49:06.976Z,23.20
2019-05-26T07:52:11.496Z,19.35
2019-05-26T07:55:16.064Z,14.07
2019-05-26T07:58:20.373Z,11.57
2019-05-26T08:01:24.737Z,14.05
2019-05-26T08:04:29.063Z,14.53
2019-05-26T08:07:33.476Z,8.80
2019-05-26T08:10:37.784Z,9.73
2019-05-26T08:13:42.148Z,10.53
2019-05-26T08:16:46.722Z,9.30
2019-05-26T08:19:51.524Z,13.88
2019-05-26T08:22:55.893Z,8.30
2019-05-26T08:26:02.673Z,11.93
2019-05-26T08:29:07.199Z,8.25
2019-05-26T08:32:13.296Z,11.50
2019-05-26T08:35:17.520Z,8.98
2019-05-26T08:38:21.737Z,11.88
2019-05-26T08:41:27.643Z,9.25
2019-05-26T08:44:31.994Z,10.90
2019-05-26T08:47:36.276Z,7.28
2019-05-26T08:50:40.577Z,8.80
2019-05-26T08:53:44.910Z,11.08
2019-05-26T08:56:50.135Z,10.28
2019-05-26T08:59:54.452Z,8.65
2019-05-26T09:02:58.921Z,8.03
2019-05-26T09:06:03.157Z,9.08
2019-05-26T09:09:08.416Z,9.30
2019-05-26T09:12:12.804Z,9.60
2019-05-26T09:15:17.365Z,8.53
2019-05-26T09:18:21.759Z,9.43
2019-05-26T09:21:26.019Z,6.17
2019-05-26T09:24:30.271Z,8.20
2019-05-26T09:27:34.646Z,5.42
2019-05-26T09:30:38.872Z,8.58
2019-05-26T09:33:43.283Z,5.87
2019-05-26T09:36:49.358Z,7.05
2019-05-26T09:39:53.616Z,7.87
2019-05-26T09:42:58.072Z,6.87
2019-05-26T09:46:02.474Z,9.63
2019-05-26T09:49:06.780Z,7.20
2019-05-26T09:52:11.155Z,9.00
2019-05-26T09:55:15.566Z,6.00
2019-05-26T09:58:19.764Z,7.42
2019-05-26T10:01:24.089Z,7.87
2019-05-26T10:04:28.298Z,6.35
2019-05-26T10:07:32.767Z,6.90
2019-05-26T10:10:38.151Z,7.75
2019-05-26T10:13:42.385Z,7.28
2019-05-26T10:16:46.754Z,6.37
2019-05-26T10:19:51.036Z,6.90
2019-05-26T10:22:55.419Z,7.35
2019-05-26T10:25:59.792Z,6.15
2019-05-26T10:29:04.317Z,10.60
2019-05-26T10:32:08.726Z,6.17
2019-05-26T10:35:13.668Z,5.97
2019-05-26T10:38:17.975Z,7.20
2019-05-26T10:41:22.457Z,6.62
2019-05-26T10:44:26.698Z,5.55
2019-05-26T10:47:31.124Z,6.03
2019-05-26T10:50:35.592Z,5.62
2019-05-26T10:53:39.889Z,6.22
2019-05-26T10:56:44.173Z,5.70
2019-05-26T10:59:48.379Z,7.47
2019-05-26T11:02:52.669Z,5.05
2019-05-26T11:05:56.963Z,4.87
2019-05-26T11:09:01.247Z,5.05
2019-05-26T11:12:05.613Z,5.65
2019-05-26T11:15:10.582Z,5.15
2019-05-26T11:18:14.843Z,5.30
2019-05-26T11:21:19.166Z,7.20
2019-05-26T11:24:23.356Z,5.58
2019-05-26T11:27:27.572Z,5.50
2019-05-26T11:30:31.940Z,6.15
2019-05-26T11:33:36.158Z,4.53
2019-05-26T11:36:40.414Z,7.30
2019-05-26T11:39:44.922Z,5.65
2019-05-26T11:42:49.212Z,4.90
2019-05-26T11:45:53.511Z,11.20
2019-05-26T11:48:57.693Z,5.72
2019-05-26T11:52:02.048Z,8.30
2019-05-26T11:55:06.661Z,8.60
2019-05-26T11:58:10.974Z,7.83
2019-05-26T12:01:15.326Z,13.88
2019-05-26T12:04:19.564Z,7.47
2019-05-26T12:07:23.751Z,7.28
2019-05-26T12:10:28.126Z,10.80
2019-05-26T12:13:32.319Z,7.40
2019-05-26T12:16:38.073Z,5.90
2019-05-26T12:19:42.423Z,7.75
2019-05-26T12:22:46.764Z,6.22
2019-05-26T12:25:51.117Z,6.03
2019-05-26T12:28:55.358Z,9.70
2019-05-26T12:31:59.567Z,7.92
2019-05-26T12:35:03.983Z,8.00
2019-05-26T12:38:08.418Z,7.60
2019-05-26T12:41:12.644Z,5.90
2019-05-26T12:44:16.991Z,8.85
2019-05-26T12:47:21.316Z,7.42
2019-05-26T12:50:25.609Z,7.20
2019-05-26T12:53:29.910Z,12.25
2019-05-26T12:56:34.212Z,8.48
2019-05-26T12:59:38.442Z,6.97
2019-05-26T13:02:42.755Z,7.53
2019-05-26T13:05:47.187Z,7.58
2019-05-26T13:08:51.409Z,8.75
2019-05-26T13:11:57.546Z,5.28
2019-05-26T13:15:06.006Z,7.72
2019-05-26T13:18:08.134Z,6.12
2019-05-26T13:21:12.557Z,6.03
2019-05-26T13:24:18.668Z,9.65
2019-05-26T13:27:23.068Z,6.58
2019-05-26T13:32:48.066Z,45.60
2019-05-26T13:35:52.434Z,220.93
2019-05-26T13:38:56.671Z,94.52
2019-05-26T13:42:00.914Z,84.77
2019-05-26T13:45:21.212Z,60.23
2019-05-26T13:48:12.408Z,42.30
2019-05-26T13:51:16.930Z,35.25
2019-05-26T13:54:21.239Z,40.75
2019-05-26T13:57:25.612Z,47.50
2019-05-26T14:00:30.037Z,40.43
2019-05-26T14:03:34.373Z,30.82
2019-05-26T14:06:38.656Z,20.10
2019-05-26T14:09:43.017Z,28.32
2019-05-26T14:12:47.519Z,24.60
2019-05-26T14:15:53.671Z,20.43
2019-05-26T14:18:58.802Z,23.02
2019-05-26T14:22:03.076Z,15.35
2019-05-26T14:25:07.918Z,24.05
2019-05-26T14:28:12.257Z,19.45
2019-05-26T14:31:16.623Z,17.42
2019-05-26T14:34:20.940Z,18.15
2019-05-26T14:37:25.292Z,18.00
2019-05-26T14:40:29.780Z,14.45
2019-05-26T14:43:34.096Z,11.83
2019-05-26T14:46:38.664Z,22.02
2019-05-26T14:49:42.992Z,12.47
2019-05-26T14:52:47.352Z,11.83
2019-05-26T14:55:51.661Z,17.40
2019-05-26T14:58:56.155Z,16.17
2019-05-26T15:02:00.413Z,15.58
2019-05-26T15:05:05.062Z,11.38
2019-05-26T15:08:09.436Z,19.70
2019-05-26T15:11:13.855Z,15.43
2019-05-26T15:14:18.123Z,9.28
2019-05-26T15:17:22.452Z,11.25
2019-05-26T15:20:26.659Z,10.82
2019-05-26T15:23:30.918Z,13.30
2019-05-26T15:26:35.194Z,9.35
2019-05-26T15:29:39.542Z,10.23
2019-05-26T15:32:43.767Z,14.18
2019-05-26T15:35:48.026Z,12.45
2019-05-26T15:38:52.401Z,9.55
2019-05-26T15:41:56.734Z,12.28
2019-05-26T15:45:01.542Z,9.28
2019-05-26T15:48:05.968Z,10.23
2019-05-26T15:51:10.276Z,8.95
2019-05-26T15:54:14.588Z,11.73
2019-05-26T15:57:18.807Z,10.03
2019-05-26T16:00:23.686Z,9.48
2019-05-26T16:03:27.952Z,9.03
2019-05-26T16:06:32.352Z,8.98
2019-05-26T16:09:36.802Z,8.00
2019-05-26T16:12:41.506Z,9.13
2019-05-26T16:15:45.765Z,11.73
2019-05-26T16:18:50.250Z,10.58
2019-05-26T16:21:54.469Z,11.45
2019-05-26T16:24:58.790Z,11.90
2019-05-26T16:28:03.079Z,15.00
2019-05-26T16:31:07.445Z,11.40
2019-05-26T16:34:11.701Z,8.15
2019-05-26T16:37:16.077Z,15.50
2019-05-26T16:40:20.458Z,9.40
2019-05-26T16:43:24.758Z,11.55
2019-05-26T16:46:29.066Z,13.60
2019-05-26T16:49:34.100Z,10.28
2019-05-26T16:52:39.221Z,13.08
2019-05-26T16:55:43.829Z,11.38
2019-05-26T16:58:48.283Z,7.60
2019-05-26T17:01:52.649Z,7.53
2019-05-26T17:04:56.915Z,8.60
2019-05-26T17:08:01.272Z,10.50
2019-05-26T17:11:05.560Z,8.60
2019-05-26T17:14:09.825Z,6.60
2019-05-26T17:17:15.387Z,8.50
2019-05-26T17:20:20.274Z,7.40
2019-05-26T17:23:24.592Z,8.40
2019-05-26T17:26:29.164Z,9.23
2019-05-26T17:29:33.529Z,7.10
2019-05-26T17:32:37.926Z,8.18
2019-05-26T17:35:42.205Z,11.10
2019-05-26T17:38:46.621Z,8.90
2019-05-26T17:41:50.957Z,8.18
2019-05-26T17:44:55.284Z,8.43
2019-05-26T17:47:59.556Z,7.28
2019-05-26T17:51:04.047Z,7.87
2019-05-26T17:54:08.337Z,10.75
2019-05-26T17:57:13.672Z,9.95
2019-05-26T18:00:18.536Z,8.00
2019-05-26T18:03:23.034Z,8.75
2019-05-26T18:06:27.412Z,8.58
2019-05-26T18:09:43.581Z,8.60
2019-05-26T18:12:37.894Z,9.60
2019-05-26T18:15:42.224Z,7.67
2019-05-26T18:18:46.526Z,7.15
2019-05-26T18:21:50.858Z,7.67
2019-05-26T18:24:58.388Z,6.62
2019-05-26T18:28:01.310Z,6.78
2019-05-26T18:31:05.804Z,6.40
2019-05-26T18:34:10.178Z,7.55
2019-05-26T18:37:14.936Z,10.70
2019-05-26T18:40:19.326Z,7.40
2019-05-26T18:43:23.706Z,8.03
2019-05-26T18:46:29.618Z,6.25
2019-05-26T18:49:34.035Z,7.25
2019-05-26T18:52:38.473Z,7.00
2019-05-26T18:55:43.082Z,7.60
2019-05-26T18:58:47.763Z,8.88
2019-05-26T19:01:52.050Z,6.22
2019-05-26T19:04:56.462Z,5.80
2019-05-26T19:08:00.738Z,6.85
2019-05-26T19:11:05.275Z,6.78
2019-05-26T19:14:09.671Z,5.97
2019-05-26T19:17:14.183Z,9.85
2019-05-26T19:20:18.505Z,6.37
2019-05-26T19:23:22.817Z,5.72
2019-05-26T19:26:27.236Z,6.50
2019-05-26T19:29:32.583Z,6.95
2019-05-26T19:32:36.890Z,8.60
2019-05-26T19:35:41.209Z,5.83
2019-05-26T19:38:45.604Z,7.50
2019-05-26T19:41:50.044Z,6.50
2019-05-26T19:44:54.605Z,6.53
2019-05-26T19:47:58.936Z,8.25
2019-05-26T19:51:03.496Z,13.30
2019-05-26T19:54:08.091Z,16.23
2019-05-26T19:57:12.443Z,21.50
2019-05-26T20:00:18.304Z,19.92
2019-05-26T20:03:22.800Z,12.55
2019-05-26T20:06:27.110Z,8.93
2019-05-26T20:09:31.489Z,14.47
2019-05-26T20:12:35.779Z,13.43
2019-05-26T20:15:40.116Z,11.22
2019-05-26T20:18:44.436Z,10.40
2019-05-26T20:21:48.897Z,16.35
2019-05-26T20:24:53.220Z,13.25
2019-05-26T20:27:57.431Z,11.00
2019-05-26T20:31:01.751Z,11.83
2019-05-26T20:34:06.088Z,10.58
2019-05-26T20:37:10.369Z,12.07
2019-05-26T20:40:15.177Z,13.80
2019-05-26T20:43:19.449Z,9.43
2019-05-26T20:46:23.824Z,6.87
2019-05-26T20:49:42.480Z,11.20
2019-05-26T20:52:34.083Z,8.03
2019-05-26T20:55:38.420Z,9.58
2019-05-26T20:58:42.730Z,7.80
2019-05-26T21:01:47.038Z,7.97
2019-05-26T21:04:51.261Z,7.92
2019-05-26T21:07:55.580Z,5.83
2019-05-26T21:10:59.792Z,6.08
2019-05-26T21:14:04.181Z,7.80
2019-05-26T21:17:08.461Z,7.12
2019-05-26T21:20:14.887Z,6.90
2019-05-26T21:23:22.522Z,5.33
2019-05-26T21:26:25.460Z,9.95
2019-05-26T21:29:29.752Z,5.53
2019-05-26T21:32:34.413Z,7.25
2019-05-26T21:35:38.643Z,6.67
2019-05-26T21:38:43.055Z,6.30
2019-05-26T21:41:47.346Z,4.37
2019-05-26T21:44:51.713Z,6.15
2019-05-26T21:47:56.015Z,5.97
2019-05-26T21:51:00.340Z,6.95
2019-05-26T21:54:04.650Z,4.67
2019-05-26T21:57:08.895Z,5.67
2019-05-26T22:00:15.938Z,4.60
2019-05-26T22:03:20.257Z,5.03
2019-05-26T22:06:24.619Z,5.92
2019-05-26T22:09:28.942Z,4.92
2019-05-26T22:12:33.292Z,7.40
2019-05-26T22:15:37.751Z,5.42
2019-05-26T22:18:42.035Z,5.83
2019-05-26T22:21:46.799Z,5.20
2019-05-26T22:24:51.708Z,4.35
2019-05-26T22:27:55.978Z,4.70
2019-05-26T22:31:00.334Z,4.35
2019-05-26T22:34:04.665Z,7.42
2019-05-26T22:37:08.888Z,4.78
2019-05-26T22:40:14.134Z,3.70
2019-05-26T22:43:18.558Z,6.00
2019-05-26T22:46:22.888Z,4.10
2019-05-26T22:49:27.137Z,5.50
2019-05-26T22:52:31.569Z,4.72
2019-05-26T22:55:35.830Z,4.75
2019-05-26T22:58:40.361Z,4.72
2019-05-26T23:01:44.661Z,4.35
2019-05-26T23:04:49.023Z,3.50
2019-05-26T23:07:53.300Z,3.42
2019-05-26T23:10:57.644Z,4.62
2019-05-26T23:14:01.868Z,2.80
2019-05-26T23:17:06.148Z,5.17
2019-05-26T23:20:11.137Z,3.33
2019-05-26T23:23:15.455Z,2.95
2019-05-26T23:26:19.806Z,3.17
2019-05-26T23:29:24.418Z,3.60
2019-05-26T23:32:28.774Z,2.92
2019-05-26T23:35:33.235Z,3.45
2019-05-26T23:38:37.616Z,3.67
2019-05-26T23:41:41.928Z,4.62
2019-05-26T23:44:46.203Z,4.12
2019-05-26T23:47:50.557Z,3.72
2019-05-26T23:50:55.331Z,5.42
2019-05-26T23:53:59.675Z,2.77
2019-05-26T23:57:04.528Z,3.52
